sensor_id;sensor_type;location;lat;lon;timestamp;temperature;humidity
68511;SHT31;55512;50.102;19.958;2023-08-17T06:44:19;27.04;58.35
68511;SHT31;55512;50.102;19.958;2023-08-17T06:46:45;27.01;58.40
68511;SHT31;55512;50.102;19.958;2023-08-17T06:49:11;27.06;58.09
68511;SHT31;55512;50.102;19.958;2023-08-17T06:51:37;27.21;57.70
68511;SHT31;55512;50.102;19.958;2023-08-17T06:54:04;27.38;57.45
68511;SHT31;55512;50.102;19.958;2023-08-17T06:56:32;27.35;57.46
68511;SHT31;55512;50.102;19.958;2023-08-17T06:58:58;27.32;57.75
68511;SHT31;55512;50.102;19.958;2023-08-17T07:01:23;27.37;57.74
68511;SHT31;55512;50.102;19.958;2023-08-17T07:03:49;27.41;57.28
68511;SHT31;55512;50.102;19.958;2023-08-17T07:06:14;27.45;57.11
68511;SHT31;55512;50.102;19.958;2023-08-17T07:08:39;27.48;57.01
68511;SHT31;55512;50.102;19.958;2023-08-17T07:11:05;27.50;56.98
68511;SHT31;55512;50.102;19.958;2023-08-17T07:13:31;27.58;56.82
68511;SHT31;55512;50.102;19.958;2023-08-17T07:15:57;27.63;56.80
68511;SHT31;55512;50.102;19.958;2023-08-17T07:18:22;27.67;56.70
68511;SHT31;55512;50.102;19.958;2023-08-17T07:20:48;27.71;56.59
68511;SHT31;55512;50.102;19.958;2023-08-17T07:23:14;27.69;56.54
68511;SHT31;55512;50.102;19.958;2023-08-17T07:25:40;27.66;56.54
68511;SHT31;55512;50.102;19.958;2023-08-17T07:28:06;27.72;56.46
68511;SHT31;55512;50.102;19.958;2023-08-17T07:30:31;27.82;56.36
68511;SHT31;55512;50.102;19.958;2023-08-17T07:32:57;27.91;56.23
68511;SHT31;55512;50.102;19.958;2023-08-17T07:35:22;27.94;55.98
68511;SHT31;55512;50.102;19.958;2023-08-17T07:37:48;27.95;55.73
68511;SHT31;55512;50.102;19.958;2023-08-17T07:40:13;28.01;55.57
68511;SHT31;55512;50.102;19.958;2023-08-17T07:42:39;28.04;55.60
68511;SHT31;55512;50.102;19.958;2023-08-17T07:45:04;28.08;55.40
68511;SHT31;55512;50.102;19.958;2023-08-17T07:47:33;28.15;55.00
68511;SHT31;55512;50.102;19.958;2023-08-17T07:50:06;28.18;54.74
68511;SHT31;55512;50.102;19.958;2023-08-17T07:52:33;28.26;54.82
68511;SHT31;55512;50.102;19.958;2023-08-17T07:54:59;28.34;54.86
68511;SHT31;55512;50.102;19.958;2023-08-17T07:57:24;28.37;54.87
68511;SHT31;55512;50.102;19.958;2023-08-17T07:59:50;28.55;54.50
68511;SHT31;55512;50.102;19.958;2023-08-17T08:02:16;28.65;54.29
68511;SHT31;55512;50.102;19.958;2023-08-17T08:04:42;28.71;54.16
68511;SHT31;55512;50.102;19.958;2023-08-17T08:07:08;28.78;54.03
68511;SHT31;55512;50.102;19.958;2023-08-17T08:09:34;28.87;54.00
68511;SHT31;55512;50.102;19.958;2023-08-17T08:12:00;28.95;53.65
68511;SHT31;55512;50.102;19.958;2023-08-17T08:14:25;28.98;53.29
68511;SHT31;55512;50.102;19.958;2023-08-17T08:16:54;29.07;53.09
68511;SHT31;55512;50.102;19.958;2023-08-17T08:19:19;29.15;52.88
68511;SHT31;55512;50.102;19.958;2023-08-17T08:21:45;29.25;52.83
68511;SHT31;55512;50.102;19.958;2023-08-17T08:24:10;29.34;52.79
68511;SHT31;55512;50.102;19.958;2023-08-17T08:26:35;29.43;52.61
68511;SHT31;55512;50.102;19.958;2023-08-17T08:29:01;29.52;52.49
68511;SHT31;55512;50.102;19.958;2023-08-17T08:31:26;29.64;52.14
68511;SHT31;55512;50.102;19.958;2023-08-17T08:33:52;29.78;51.79
68511;SHT31;55512;50.102;19.958;2023-08-17T08:36:18;29.90;51.66
68511;SHT31;55512;50.102;19.958;2023-08-17T08:38:43;30.04;51.19
68511;SHT31;55512;50.102;19.958;2023-08-17T08:41:10;30.14;50.87
68511;SHT31;55512;50.102;19.958;2023-08-17T08:43:37;30.27;50.60
68511;SHT31;55512;50.102;19.958;2023-08-17T08:46:04;30.37;50.39
68511;SHT31;55512;50.102;19.958;2023-08-17T08:48:31;30.48;49.92
68511;SHT31;55512;50.102;19.958;2023-08-17T08:50:59;30.57;49.42
68511;SHT31;55512;50.102;19.958;2023-08-17T08:53:35;30.59;49.07
68511;SHT31;55512;50.102;19.958;2023-08-17T08:56:04;30.62;49.11
68511;SHT31;55512;50.102;19.958;2023-08-17T08:58:37;30.70;48.92
68511;SHT31;55512;50.102;19.958;2023-08-17T09:01:05;30.78;48.75
68511;SHT31;55512;50.102;19.958;2023-08-17T09:03:33;30.85;48.64
68511;SHT31;55512;50.102;19.958;2023-08-17T09:05:59;30.90;48.58
68511;SHT31;55512;50.102;19.958;2023-08-17T09:08:27;30.98;48.30
68511;SHT31;55512;50.102;19.958;2023-08-17T09:10:54;31.01;47.96
68511;SHT31;55512;50.102;19.958;2023-08-17T09:13:20;31.08;48.01
68511;SHT31;55512;50.102;19.958;2023-08-17T09:15:45;31.16;47.90
68511;SHT31;55512;50.102;19.958;2023-08-17T09:18:11;31.20;47.86
68511;SHT31;55512;50.102;19.958;2023-08-17T09:20:37;31.27;47.74
68511;SHT31;55512;50.102;19.958;2023-08-17T09:23:14;31.40;47.32
68511;SHT31;55512;50.102;19.958;2023-08-17T09:25:42;31.52;47.04
68511;SHT31;55512;50.102;19.958;2023-08-17T09:28:10;31.63;46.77
68511;SHT31;55512;50.102;19.958;2023-08-17T09:30:52;31.75;46.16
68511;SHT31;55512;50.102;19.958;2023-08-17T09:33:30;31.82;46.27
68511;SHT31;55512;50.102;19.958;2023-08-17T09:35:57;31.85;46.17
68511;SHT31;55512;50.102;19.958;2023-08-17T09:38:25;31.94;45.94
68511;SHT31;55512;50.102;19.958;2023-08-17T09:40:52;32.05;45.86
68511;SHT31;55512;50.102;19.958;2023-08-17T09:43:18;32.15;45.71
68511;SHT31;55512;50.102;19.958;2023-08-17T09:45:48;32.30;45.04
68511;SHT31;55512;50.102;19.958;2023-08-17T09:48:17;32.37;44.52
68511;SHT31;55512;50.102;19.958;2023-08-17T09:50:46;32.50;44.30
68511;SHT31;55512;50.102;19.958;2023-08-17T09:53:13;32.62;43.95
68511;SHT31;55512;50.102;19.958;2023-08-17T09:55:43;32.69;43.98
68511;SHT31;55512;50.102;19.958;2023-08-17T09:58:10;32.80;43.04
68511;SHT31;55512;50.102;19.958;2023-08-17T10:00:43;32.97;42.46
68511;SHT31;55512;50.102;19.958;2023-08-17T10:03:11;33.02;41.82
68511;SHT31;55512;50.102;19.958;2023-08-17T10:05:40;33.02;41.16
68511;SHT31;55512;50.102;19.958;2023-08-17T10:08:07;33.08;40.83
68511;SHT31;55512;50.102;19.958;2023-08-17T10:10:44;33.08;40.53
68511;SHT31;55512;50.102;19.958;2023-08-17T10:13:46;32.98;41.13
68511;SHT31;55512;50.102;19.958;2023-08-17T10:16:22;32.99;41.38
68511;SHT31;55512;50.102;19.958;2023-08-17T10:19:05;33.00;41.35
68511;SHT31;55512;50.102;19.958;2023-08-17T10:21:48;32.98;41.99
68511;SHT31;55512;50.102;19.958;2023-08-17T10:24:25;33.02;42.30
68511;SHT31;55512;50.102;19.958;2023-08-17T10:26:51;33.08;41.59
68511;SHT31;55512;50.102;19.958;2023-08-17T10:29:18;33.13;41.02
68511;SHT31;55512;50.102;19.958;2023-08-17T10:31:47;33.19;40.42
68511;SHT31;55512;50.102;19.958;2023-08-17T10:34:14;33.28;39.66
68511;SHT31;55512;50.102;19.958;2023-08-17T10:36:40;33.29;38.87
68511;SHT31;55512;50.102;19.958;2023-08-17T10:39:27;33.29;38.33
68511;SHT31;55512;50.102;19.958;2023-08-17T10:41:54;33.29;38.34
68511;SHT31;55512;50.102;19.958;2023-08-17T10:44:37;33.28;38.60
68511;SHT31;55512;50.102;19.958;2023-08-17T10:52:49;33.22;38.27
68511;SHT31;55512;50.102;19.958;2023-08-17T10:55:20;33.24;37.98
68511;SHT31;55512;50.102;19.958;2023-08-17T10:58:22;33.25;37.92
68511;SHT31;55512;50.102;19.958;2023-08-17T11:00:48;33.25;38.16
68511;SHT31;55512;50.102;19.958;2023-08-17T11:03:22;33.26;38.42
68511;SHT31;55512;50.102;19.958;2023-08-17T11:05:49;33.26;38.52
68511;SHT31;55512;50.102;19.958;2023-08-17T11:11:15;33.27;38.97
68511;SHT31;55512;50.102;19.958;2023-08-17T11:13:41;33.26;39.14
68511;SHT31;55512;50.102;19.958;2023-08-17T11:16:09;33.20;39.41
68511;SHT31;55512;50.102;19.958;2023-08-17T11:18:37;33.16;39.67
68511;SHT31;55512;50.102;19.958;2023-08-17T11:21:04;33.13;39.93
68511;SHT31;55512;50.102;19.958;2023-08-17T11:23:32;33.18;39.97
68511;SHT31;55512;50.102;19.958;2023-08-17T11:26:00;33.23;39.95
68511;SHT31;55512;50.102;19.958;2023-08-17T11:28:26;33.24;39.56
68511;SHT31;55512;50.102;19.958;2023-08-17T11:30:58;33.31;39.25
68511;SHT31;55512;50.102;19.958;2023-08-17T11:33:27;33.39;38.95
68511;SHT31;55512;50.102;19.958;2023-08-17T11:35:55;33.45;38.82
68511;SHT31;55512;50.102;19.958;2023-08-17T11:38:21;33.55;38.69
68511;SHT31;55512;50.102;19.958;2023-08-17T11:40:47;33.65;38.59
68511;SHT31;55512;50.102;19.958;2023-08-17T11:43:14;33.74;38.46
68511;SHT31;55512;50.102;19.958;2023-08-17T11:45:39;33.84;38.57
68511;SHT31;55512;50.102;19.958;2023-08-17T11:48:06;33.95;38.37
68511;SHT31;55512;50.102;19.958;2023-08-17T11:50:32;34.07;38.12
68511;SHT31;55512;50.102;19.958;2023-08-17T11:53:00;34.22;38.16
68511;SHT31;55512;50.102;19.958;2023-08-17T11:55:26;34.39;38.07
68511;SHT31;55512;50.102;19.958;2023-08-17T11:57:52;34.58;38.03
68511;SHT31;55512;50.102;19.958;2023-08-17T12:00:18;34.76;37.50
68511;SHT31;55512;50.102;19.958;2023-08-17T12:02:47;34.93;37.02
68511;SHT31;55512;50.102;19.958;2023-08-17T12:05:18;35.13;36.77
68511;SHT31;55512;50.102;19.958;2023-08-17T12:07:45;35.29;36.42
68511;SHT31;55512;50.102;19.958;2023-08-17T12:10:11;35.40;35.93
68511;SHT31;55512;50.102;19.958;2023-08-17T12:12:37;35.41;35.43
68511;SHT31;55512;50.102;19.958;2023-08-17T12:15:05;35.28;34.98
68511;SHT31;55512;50.102;19.958;2023-08-17T12:17:31;35.16;35.03
68511;SHT31;55512;50.102;19.958;2023-08-17T12:19:58;35.14;35.16
68511;SHT31;55512;50.102;19.958;2023-08-17T12:22:24;35.15;35.14
68511;SHT31;55512;50.102;19.958;2023-08-17T12:24:51;35.17;35.16
68511;SHT31;55512;50.102;19.958;2023-08-17T12:27:17;35.15;35.24
68511;SHT31;55512;50.102;19.958;2023-08-17T12:29:49;35.08;35.12
68511;SHT31;55512;50.102;19.958;2023-08-17T12:32:17;34.92;34.87
68511;SHT31;55512;50.102;19.958;2023-08-17T12:34:44;34.45;35.43
68511;SHT31;55512;50.102;19.958;2023-08-17T12:37:11;33.97;35.97
68511;SHT31;55512;50.102;19.958;2023-08-17T12:39:43;33.53;36.19
68511;SHT31;55512;50.102;19.958;2023-08-17T12:42:08;33.16;36.51
68511;SHT31;55512;50.102;19.958;2023-08-17T12:44:33;32.84;36.70
68511;SHT31;55512;50.102;19.958;2023-08-17T12:46:59;32.49;37.00
68511;SHT31;55512;50.102;19.958;2023-08-17T12:49:24;32.16;37.69
68511;SHT31;55512;50.102;19.958;2023-08-17T12:51:50;31.90;38.27
68511;SHT31;55512;50.102;19.958;2023-08-17T12:54:17;31.68;38.73
68511;SHT31;55512;50.102;19.958;2023-08-17T12:56:42;31.42;39.15
68511;SHT31;55512;50.102;19.958;2023-08-17T12:59:09;31.18;39.32
68511;SHT31;55512;50.102;19.958;2023-08-17T13:01:35;30.87;39.81
68511;SHT31;55512;50.102;19.958;2023-08-17T13:04:00;30.50;40.42
68511;SHT31;55512;50.102;19.958;2023-08-17T13:06:26;30.15;40.99
68511;SHT31;55512;50.102;19.958;2023-08-17T13:08:51;29.78;41.41
68511;SHT31;55512;50.102;19.958;2023-08-17T13:11:17;29.48;41.75
68511;SHT31;55512;50.102;19.958;2023-08-17T13:13:42;29.17;41.92
68511;SHT31;55512;50.102;19.958;2023-08-17T13:16:08;28.76;42.63
68511;SHT31;55512;50.102;19.958;2023-08-17T13:18:34;28.30;43.19
68511;SHT31;55512;50.102;19.958;2023-08-17T13:20:59;27.90;43.96
68511;SHT31;55512;50.102;19.958;2023-08-17T13:23:25;27.70;44.50
68511;SHT31;55512;50.102;19.958;2023-08-17T13:25:50;27.53;44.90
68511;SHT31;55512;50.102;19.958;2023-08-17T13:28:16;27.32;45.51
68511;SHT31;55512;50.102;19.958;2023-08-17T13:30:41;27.14;46.07
68511;SHT31;55512;50.102;19.958;2023-08-17T13:33:07;27.06;46.47
68511;SHT31;55512;50.102;19.958;2023-08-17T13:35:33;26.86;46.78
68511;SHT31;55512;50.102;19.958;2023-08-17T13:37:59;26.69;47.35
68511;SHT31;55512;50.102;19.958;2023-08-17T13:40:25;26.64;47.53
68511;SHT31;55512;50.102;19.958;2023-08-17T13:42:50;26.54;47.62
68511;SHT31;55512;50.102;19.958;2023-08-17T13:45:16;26.51;47.75
68511;SHT31;55512;50.102;19.958;2023-08-17T13:47:41;26.53;47.61
68511;SHT31;55512;50.102;19.958;2023-08-17T13:50:07;26.59;47.45
68511;SHT31;55512;50.102;19.958;2023-08-17T13:52:34;26.72;47.28
68511;SHT31;55512;50.102;19.958;2023-08-17T13:54:59;26.80;47.41
68511;SHT31;55512;50.102;19.958;2023-08-17T13:57:25;26.82;47.73
68511;SHT31;55512;50.102;19.958;2023-08-17T13:59:50;26.98;48.11
68511;SHT31;55512;50.102;19.958;2023-08-17T14:02:17;27.10;48.05
68511;SHT31;55512;50.102;19.958;2023-08-17T14:04:43;27.26;47.52
68511;SHT31;55512;50.102;19.958;2023-08-17T14:07:09;27.43;47.23
68511;SHT31;55512;50.102;19.958;2023-08-17T14:09:34;27.63;46.86
68511;SHT31;55512;50.102;19.958;2023-08-17T14:11:59;27.84;47.03
68511;SHT31;55512;50.102;19.958;2023-08-17T14:14:26;28.09;46.52
68511;SHT31;55512;50.102;19.958;2023-08-17T14:16:52;28.28;45.61
68511;SHT31;55512;50.102;19.958;2023-08-17T14:19:17;28.44;45.28
68511;SHT31;55512;50.102;19.958;2023-08-17T14:21:43;28.66;45.05
68511;SHT31;55512;50.102;19.958;2023-08-17T14:24:08;28.88;44.82
68511;SHT31;55512;50.102;19.958;2023-08-17T14:26:34;29.18;44.70
68511;SHT31;55512;50.102;19.958;2023-08-17T14:29:00;29.57;44.20
68511;SHT31;55512;50.102;19.958;2023-08-17T14:31:25;29.99;43.34
68511;SHT31;55512;50.102;19.958;2023-08-17T14:33:51;30.50;42.49
68511;SHT31;55512;50.102;19.958;2023-08-17T14:36:16;31.36;41.24
68511;SHT31;55512;50.102;19.958;2023-08-17T14:38:42;32.60;39.67
68511;SHT31;55512;50.102;19.958;2023-08-17T14:41:07;33.88;37.98
68511;SHT31;55512;50.102;19.958;2023-08-17T14:43:34;34.81;36.65
68511;SHT31;55512;50.102;19.958;2023-08-17T14:46:00;34.99;36.11
68511;SHT31;55512;50.102;19.958;2023-08-17T14:48:25;34.82;36.06
68511;SHT31;55512;50.102;19.958;2023-08-17T14:50:51;34.38;36.25
68511;SHT31;55512;50.102;19.958;2023-08-17T14:53:17;33.88;36.54
68511;SHT31;55512;50.102;19.958;2023-08-17T14:55:42;33.45;36.84
68511;SHT31;55512;50.102;19.958;2023-08-17T14:58:08;33.07;37.16
68511;SHT31;55512;50.102;19.958;2023-08-17T15:00:33;32.70;37.61
68511;SHT31;55512;50.102;19.958;2023-08-17T15:02:59;32.38;37.84
68511;SHT31;55512;50.102;19.958;2023-08-17T15:05:25;32.13;38.19
68511;SHT31;55512;50.102;19.958;2023-08-17T15:07:51;31.84;38.59
68511;SHT31;55512;50.102;19.958;2023-08-17T15:10:17;31.59;39.08
68511;SHT31;55512;50.102;19.958;2023-08-17T15:12:44;31.41;39.57
68511;SHT31;55512;50.102;19.958;2023-08-17T15:15:10;31.40;39.83
68511;SHT31;55512;50.102;19.958;2023-08-17T15:17:35;31.59;39.79
68511;SHT31;55512;50.102;19.958;2023-08-17T15:20:02;31.58;39.89
68511;SHT31;55512;50.102;19.958;2023-08-17T15:22:28;31.47;40.09
68511;SHT31;55512;50.102;19.958;2023-08-17T15:24:53;31.35;40.29
68511;SHT31;55512;50.102;19.958;2023-08-17T15:27:19;31.23;40.53
68511;SHT31;55512;50.102;19.958;2023-08-17T15:29:44;31.13;40.80
68511;SHT31;55512;50.102;19.958;2023-08-17T15:32:10;31.02;41.08
68511;SHT31;55512;50.102;19.958;2023-08-17T15:34:36;30.93;41.27
68511;SHT31;55512;50.102;19.958;2023-08-17T15:37:02;30.85;41.42
68511;SHT31;55512;50.102;19.958;2023-08-17T15:39:28;30.78;41.72
68511;SHT31;55512;50.102;19.958;2023-08-17T15:41:55;30.69;41.96
68511;SHT31;55512;50.102;19.958;2023-08-17T15:44:21;30.63;42.05
68511;SHT31;55512;50.102;19.958;2023-08-17T15:46:47;30.55;42.32
68511;SHT31;55512;50.102;19.958;2023-08-17T15:49:12;30.48;42.50
68511;SHT31;55512;50.102;19.958;2023-08-17T15:51:38;30.43;42.67
68511;SHT31;55512;50.102;19.958;2023-08-17T15:54:04;30.36;42.96
68511;SHT31;55512;50.102;19.958;2023-08-17T15:56:31;30.28;43.19
68511;SHT31;55512;50.102;19.958;2023-08-17T15:58:56;30.19;43.22
68511;SHT31;55512;50.102;19.958;2023-08-17T16:01:22;30.11;43.38
68511;SHT31;55512;50.102;19.958;2023-08-17T16:03:47;30.03;43.64
68511;SHT31;55512;50.102;19.958;2023-08-17T16:06:13;29.97;43.86
68511;SHT31;55512;50.102;19.958;2023-08-17T16:08:40;29.89;44.06
68511;SHT31;55512;50.102;19.958;2023-08-17T16:11:10;29.82;44.18
68511;SHT31;55512;50.102;19.958;2023-08-17T16:13:37;29.72;44.27
68511;SHT31;55512;50.102;19.958;2023-08-17T16:16:03;29.64;44.49
68511;SHT31;55512;50.102;19.958;2023-08-17T16:18:29;29.59;44.53
68511;SHT31;55512;50.102;19.958;2023-08-17T16:20:55;29.54;44.62
68511;SHT31;55512;50.102;19.958;2023-08-17T16:23:20;29.49;44.74
68511;SHT31;55512;50.102;19.958;2023-08-17T16:25:45;29.44;44.89
68511;SHT31;55512;50.102;19.958;2023-08-17T16:28:11;29.30;45.14
68511;SHT31;55512;50.102;19.958;2023-08-17T16:30:37;29.20;45.37
68511;SHT31;55512;50.102;19.958;2023-08-17T16:33:04;29.14;45.49
68511;SHT31;55512;50.102;19.958;2023-08-17T16:35:30;29.05;45.77
68511;SHT31;55512;50.102;19.958;2023-08-17T16:37:55;28.95;46.15
68511;SHT31;55512;50.102;19.958;2023-08-17T16:40:21;28.87;46.33
68511;SHT31;55512;50.102;19.958;2023-08-17T16:42:46;28.78;46.30
68511;SHT31;55512;50.102;19.958;2023-08-17T16:45:14;28.65;46.61
68511;SHT31;55512;50.102;19.958;2023-08-17T16:47:43;28.57;46.87
68511;SHT31;55512;50.102;19.958;2023-08-17T16:50:09;28.42;47.21
68511;SHT31;55512;50.102;19.958;2023-08-17T16:52:34;28.12;47.93
68511;SHT31;55512;50.102;19.958;2023-08-17T16:55:00;27.86;48.53
68511;SHT31;55512;50.102;19.958;2023-08-17T16:57:25;27.66;49.07
68511;SHT31;55512;50.102;19.958;2023-08-17T16:59:51;27.47;49.41
68511;SHT31;55512;50.102;19.958;2023-08-17T17:02:16;27.26;50.03
68511;SHT31;55512;50.102;19.958;2023-08-17T17:04:42;27.08;50.57
68511;SHT31;55512;50.102;19.958;2023-08-17T17:07:08;26.95;50.96
68511;SHT31;55512;50.102;19.958;2023-08-17T17:09:34;26.80;51.34
68511;SHT31;55512;50.102;19.958;2023-08-17T17:11:59;26.68;51.68
68511;SHT31;55512;50.102;19.958;2023-08-17T17:14:25;26.57;52.04
68511;SHT31;55512;50.102;19.958;2023-08-17T17:16:50;26.44;52.50
68511;SHT31;55512;50.102;19.958;2023-08-17T17:19:15;26.34;52.80
68511;SHT31;55512;50.102;19.958;2023-08-17T17:21:43;26.23;53.01
68511;SHT31;55512;50.102;19.958;2023-08-17T17:24:09;26.14;53.25
68511;SHT31;55512;50.102;19.958;2023-08-17T17:26:35;26.02;53.73
68511;SHT31;55512;50.102;19.958;2023-08-17T17:29:03;25.89;54.21
68511;SHT31;55512;50.102;19.958;2023-08-17T17:31:29;25.76;54.60
68511;SHT31;55512;50.102;19.958;2023-08-17T17:33:55;25.65;54.74
68511;SHT31;55512;50.102;19.958;2023-08-17T17:36:20;25.60;54.77
68511;SHT31;55512;50.102;19.958;2023-08-17T17:38:46;25.57;54.98
68511;SHT31;55512;50.102;19.958;2023-08-17T17:41:11;25.55;55.14
68511;SHT31;55512;50.102;19.958;2023-08-17T17:43:38;25.51;55.47
68511;SHT31;55512;50.102;19.958;2023-08-17T17:46:05;25.42;55.66
68511;SHT31;55512;50.102;19.958;2023-08-17T17:48:30;25.39;56.01
68511;SHT31;55512;50.102;19.958;2023-08-17T17:50:57;25.34;56.23
68511;SHT31;55512;50.102;19.958;2023-08-17T17:53:22;25.30;56.25
68511;SHT31;55512;50.102;19.958;2023-08-17T17:55:48;25.26;56.48
68511;SHT31;55512;50.102;19.958;2023-08-17T17:58:13;25.21;56.84
68511;SHT31;55512;50.102;19.958;2023-08-17T18:00:39;25.15;57.27
68511;SHT31;55512;50.102;19.958;2023-08-17T18:03:09;25.09;57.50
68511;SHT31;55512;50.102;19.958;2023-08-17T18:05:38;25.05;57.50
68511;SHT31;55512;50.102;19.958;2023-08-17T18:08:13;25.02;57.54
68511;SHT31;55512;50.102;19.958;2023-08-17T18:10:39;24.97;57.69
68511;SHT31;55512;50.102;19.958;2023-08-17T18:13:06;24.94;57.80
68511;SHT31;55512;50.102;19.958;2023-08-17T18:15:32;24.92;57.94
68511;SHT31;55512;50.102;19.958;2023-08-17T18:17:59;24.92;57.99
68511;SHT31;55512;50.102;19.958;2023-08-17T18:20:26;24.89;58.16
68511;SHT31;55512;50.102;19.958;2023-08-17T18:22:51;24.86;58.36
68511;SHT31;55512;50.102;19.958;2023-08-17T18:25:17;24.82;58.54
68511;SHT31;55512;50.102;19.958;2023-08-17T18:27:43;24.79;58.65
68511;SHT31;55512;50.102;19.958;2023-08-17T18:30:08;24.74;58.53
68511;SHT31;55512;50.102;19.958;2023-08-17T18:32:35;24.71;58.36
68511;SHT31;55512;50.102;19.958;2023-08-17T18:35:03;24.68;58.34
68511;SHT31;55512;50.102;19.958;2023-08-17T18:37:30;24.65;58.43
68511;SHT31;55512;50.102;19.958;2023-08-17T18:39:55;24.61;58.53
68511;SHT31;55512;50.102;19.958;2023-08-17T18:42:21;24.57;58.63
68511;SHT31;55512;50.102;19.958;2023-08-17T18:44:47;24.54;58.76
68511;SHT31;55512;50.102;19.958;2023-08-17T18:47:13;24.51;58.77
68511;SHT31;55512;50.102;19.958;2023-08-17T18:49:38;24.49;58.85
68511;SHT31;55512;50.102;19.958;2023-08-17T18:52:04;24.46;58.91
68511;SHT31;55512;50.102;19.958;2023-08-17T18:54:32;24.44;58.93
68511;SHT31;55512;50.102;19.958;2023-08-17T18:56:58;24.41;59.00
68511;SHT31;55512;50.102;19.958;2023-08-17T18:59:23;24.40;59.09
68511;SHT31;55512;50.102;19.958;2023-08-17T19:01:49;24.39;59.18
68511;SHT31;55512;50.102;19.958;2023-08-17T19:04:14;24.37;59.24
68511;SHT31;55512;50.102;19.958;2023-08-17T19:06:40;24.44;59.08
68511;SHT31;55512;50.102;19.958;2023-08-17T19:09:05;24.55;58.79
68511;SHT31;55512;50.102;19.958;2023-08-17T19:11:30;24.48;58.92
68511;SHT31;55512;50.102;19.958;2023-08-17T19:13:56;24.35;59.28
68511;SHT31;55512;50.102;19.958;2023-08-17T19:16:21;24.34;59.18
68511;SHT31;55512;50.102;19.958;2023-08-17T19:18:47;24.35;59.13
68511;SHT31;55512;50.102;19.958;2023-08-17T19:21:12;24.35;59.16
68511;SHT31;55512;50.102;19.958;2023-08-17T19:23:38;24.36;59.25
68511;SHT31;55512;50.102;19.958;2023-08-17T19:26:04;24.36;59.40
68511;SHT31;55512;50.102;19.958;2023-08-17T19:28:30;24.36;59.58
68511;SHT31;55512;50.102;19.958;2023-08-17T19:30:56;24.37;59.45
68511;SHT31;55512;50.102;19.958;2023-08-17T19:33:21;24.38;59.55
68511;SHT31;55512;50.102;19.958;2023-08-17T19:35:46;24.39;59.66
68511;SHT31;55512;50.102;19.958;2023-08-17T19:38:12;24.40;59.63
68511;SHT31;55512;50.102;19.958;2023-08-17T19:40:39;24.41;59.68
68511;SHT31;55512;50.102;19.958;2023-08-17T19:43:06;24.40;59.60
68511;SHT31;55512;50.102;19.958;2023-08-17T19:45:31;24.41;59.50
68511;SHT31;55512;50.102;19.958;2023-08-17T19:47:56;24.43;59.74
68511;SHT31;55512;50.102;19.958;2023-08-17T19:50:22;24.51;59.67
68511;SHT31;55512;50.102;19.958;2023-08-17T19:52:50;24.62;59.48
68511;SHT31;55512;50.102;19.958;2023-08-17T19:55:16;24.72;59.39
68511;SHT31;55512;50.102;19.958;2023-08-17T19:57:41;24.84;59.18
68511;SHT31;55512;50.102;19.958;2023-08-17T20:00:07;24.93;58.98
68511;SHT31;55512;50.102;19.958;2023-08-17T20:02:36;25.01;58.79
68511;SHT31;55512;50.102;19.958;2023-08-17T20:05:02;25.05;58.50
68511;SHT31;55512;50.102;19.958;2023-08-17T20:07:29;25.04;58.40
68511;SHT31;55512;50.102;19.958;2023-08-17T20:09:54;24.99;58.48
68511;SHT31;55512;50.102;19.958;2023-08-17T20:12:20;24.94;58.57
68511;SHT31;55512;50.102;19.958;2023-08-17T20:14:46;24.89;58.59
68511;SHT31;55512;50.102;19.958;2023-08-17T20:17:11;24.86;58.68
68511;SHT31;55512;50.102;19.958;2023-08-17T20:19:37;24.91;58.66
68511;SHT31;55512;50.102;19.958;2023-08-17T20:22:03;24.98;58.79
68511;SHT31;55512;50.102;19.958;2023-08-17T20:24:29;25.03;59.13
68511;SHT31;55512;50.102;19.958;2023-08-17T20:26:57;25.08;59.01
68511;SHT31;55512;50.102;19.958;2023-08-17T20:29:23;25.13;59.00
68511;SHT31;55512;50.102;19.958;2023-08-17T20:31:48;25.17;59.04
68511;SHT31;55512;50.102;19.958;2023-08-17T20:34:14;25.22;58.98
68511;SHT31;55512;50.102;19.958;2023-08-17T20:36:39;25.26;58.81
68511;SHT31;55512;50.102;19.958;2023-08-17T20:39:13;25.28;58.79
68511;SHT31;55512;50.102;19.958;2023-08-17T20:41:40;25.30;58.70
68511;SHT31;55512;50.102;19.958;2023-08-17T20:44:06;25.31;58.69
68511;SHT31;55512;50.102;19.958;2023-08-17T20:46:32;25.29;58.69
68511;SHT31;55512;50.102;19.958;2023-08-17T20:48:58;25.30;58.63
68511;SHT31;55512;50.102;19.958;2023-08-17T20:51:25;25.32;58.60
68511;SHT31;55512;50.102;19.958;2023-08-17T20:53:51;25.32;58.59
68511;SHT31;55512;50.102;19.958;2023-08-17T20:56:18;25.34;58.53
68511;SHT31;55512;50.102;19.958;2023-08-17T20:58:44;25.35;58.50
68511;SHT31;55512;50.102;19.958;2023-08-17T21:01:11;25.33;58.50
68511;SHT31;55512;50.102;19.958;2023-08-17T21:03:37;25.33;58.49
68511;SHT31;55512;50.102;19.958;2023-08-17T21:06:03;25.33;58.42
68511;SHT31;55512;50.102;19.958;2023-08-17T21:08:30;25.32;58.40
68511;SHT31;55512;50.102;19.958;2023-08-17T21:10:56;25.34;58.40
68511;SHT31;55512;50.102;19.958;2023-08-17T21:13:21;25.35;58.38
68511;SHT31;55512;50.102;19.958;2023-08-17T21:15:47;25.35;58.30
68511;SHT31;55512;50.102;19.958;2023-08-17T21:18:12;25.36;58.30
68511;SHT31;55512;50.102;19.958;2023-08-17T21:20:41;25.37;58.31
68511;SHT31;55512;50.102;19.958;2023-08-17T21:23:06;25.36;58.38
68511;SHT31;55512;50.102;19.958;2023-08-17T21:25:31;25.36;58.38
68511;SHT31;55512;50.102;19.958;2023-08-17T21:27:57;25.35;58.36
68511;SHT31;55512;50.102;19.958;2023-08-17T21:30:23;25.33;58.45
68511;SHT31;55512;50.102;19.958;2023-08-17T21:32:50;25.32;58.54
68511;SHT31;55512;50.102;19.958;2023-08-17T21:35:16;25.32;58.59
68511;SHT31;55512;50.102;19.958;2023-08-17T21:37:43;25.31;58.66
68511;SHT31;55512;50.102;19.958;2023-08-17T21:40:12;25.29;58.59
68511;SHT31;55512;50.102;19.958;2023-08-17T21:42:40;25.31;58.67
68511;SHT31;55512;50.102;19.958;2023-08-17T21:45:05;25.30;58.70
68511;SHT31;55512;50.102;19.958;2023-08-17T21:47:32;25.28;58.73
68511;SHT31;55512;50.102;19.958;2023-08-17T21:49:57;25.28;58.74
68511;SHT31;55512;50.102;19.958;2023-08-17T21:52:22;25.28;58.76
68511;SHT31;55512;50.102;19.958;2023-08-17T21:54:48;25.26;58.78
68511;SHT31;55512;50.102;19.958;2023-08-17T21:57:17;25.24;58.91
68511;SHT31;55512;50.102;19.958;2023-08-17T21:59:43;25.21;59.09
68511;SHT31;55512;50.102;19.958;2023-08-17T22:02:09;25.20;59.29
68511;SHT31;55512;50.102;19.958;2023-08-17T22:04:34;25.18;59.38